Time;durP1;ratioP1;P1;durP2;ratioP2;P2;SDS_P1;SDS_P2;PMS_P1;PMS_P2;Temp;Humidity;BMP_temperature;BMP_pressure;BME280_temperature;BME280_humidity;BME280_pressure;Samples;Min_cycle;Max_cycle;Signal;HPM_P1;HPM_P2
2021/04/12 00:00:06;;;;;;;1.17;0.90;;;6.40;74.40;;;;;;5038277;28;20049;-60
2021/04/12 00:02:48;;;;;;;1.42;0.73;;;6.40;74.60;;;;;;5073294;28;20040;-60
2021/04/12 00:05:20;;;;;;;0.90;0.90;;;6.40;74.80;;;;;;5073707;28;20040;-60
2021/04/12 00:08:11;;;;;;;3.00;1.00;;;6.30;74.70;;;;;;5073984;28;20360;-60
2021/04/12 00:10:52;;;;;;;1.55;0.82;;;6.30;74.80;;;;;;5025609;28;20484;-60
2021/04/12 00:13:40;;;;;;;0.52;0.52;;;6.30;74.70;;;;;;5071885;28;20163;-60
2021/04/12 00:16:28;;;;;;;1.52;1.00;;;6.30;74.60;;;;;;5071246;28;20044;-60
2021/04/12 00:19:19;;;;;;;0.85;0.85;;;6.30;74.70;;;;;;5058928;28;20488;-60
2021/04/12 00:22:24;;;;;;;2.92;1.10;;;6.20;74.80;;;;;;5073279;28;20032;-60
2021/04/12 00:25:11;;;;;;;3.90;1.00;;;6.20;74.80;;;;;;5072609;28;20115;-60
2021/04/12 00:28:06;;;;;;;10.05;2.00;;;6.20;74.90;;;;;;5073497;28;20093;-60
2021/04/12 00:30:41;;;;;;;2.00;1.10;;;6.20;75.00;;;;;;5052143;28;20037;-60
2021/04/12 00:33:31;;;;;;;1.98;1.05;;;6.20;75.00;;;;;;5073227;28;20036;-60
2021/04/12 00:36:16;;;;;;;0.98;0.88;;;6.10;75.00;;;;;;5053264;28;20116;-60
2021/04/12 00:39:08;;;;;;;1.13;1.02;;;6.10;74.70;;;;;;5068925;28;20028;-60
2021/04/12 00:41:58;;;;;;;0.82;0.82;;;6.10;74.80;;;;;;5073245;28;20028;-60
2021/04/12 00:45:05;;;;;;;2.90;1.15;;;6.00;74.60;;;;;;5059482;28;20502;-60
2021/04/12 00:48:02;;;;;;;0.60;0.60;;;6.00;74.40;;;;;;5054596;28;20037;-60
2021/04/12 00:50:41;;;;;;;0.75;0.75;;;5.90;74.30;;;;;;5054862;28;20028;-60
2021/04/12 00:53:27;;;;;;;3.70;0.90;;;5.90;74.40;;;;;;5072245;28;20108;-60
2021/04/12 00:55:58;;;;;;;1.77;1.30;;;5.90;74.40;;;;;;5054665;28;20553;-60
2021/04/12 00:58:49;;;;;;;2.28;1.20;;;5.80;74.50;;;;;;5055051;28;20024;-60
2021/04/12 01:01:32;;;;;;;1.40;1.13;;;5.80;74.60;;;;;;5054747;28;20483;-60
2021/04/12 01:04:10;;;;;;;2.55;1.25;;;5.80;75.40;;;;;;5073048;28;20039;-60
2021/04/12 01:07:04;;;;;;;2.05;1.05;;;5.80;74.70;;;;;;5041786;28;20040;-60
2021/04/12 01:09:56;;;;;;;1.42;1.13;;;5.70;74.50;;;;;;5072583;28;20096;-60
2021/04/12 01:12:58;;;;;;;2.70;1.17;;;5.70;74.60;;;;;;5071237;28;20028;-60
2021/04/12 01:15:45;;;;;;;8.25;0.80;;;5.70;74.60;;;;;;5062514;28;20071;-60
2021/04/12 01:18:41;;;;;;;4.68;2.08;;;5.60;74.20;;;;;;5026874;28;20369;-60
2021/04/12 01:21:41;;;;;;;1.20;1.10;;;5.60;73.90;;;;;;5071865;28;20025;-60
2021/04/12 01:24:19;;;;;;;0.40;0.40;;;5.50;73.90;;;;;;5063186;28;20025;-60
2021/04/12 01:27:06;;;;;;;1.65;1.42;;;5.40;74.30;;;;;;5071923;28;20115;-60
2021/04/12 01:29:35;;;;;;;0.50;0.50;;;5.40;74.70;;;;;;5072370;28;20020;-60
2021/04/12 01:32:18;;;;;;;0.40;0.40;;;5.40;74.90;;;;;;5071963;28;20037;-60
2021/04/12 01:34:59;;;;;;;2.85;0.95;;;5.40;75.10;;;;;;5071590;28;20072;-60
2021/04/12 01:37:33;;;;;;;2.08;0.98;;;5.40;75.20;;;;;;5072630;28;20063;-60
2021/04/12 01:40:50;;;;;;;0.80;0.80;;;5.40;75.20;;;;;;5072423;28;20028;-60
2021/04/12 01:43:42;;;;;;;0.60;0.60;;;5.40;75.30;;;;;;4990589;28;20034;-60
2021/04/12 01:46:11;;;;;;;0.60;0.60;;;5.40;75.30;;;;;;5072517;28;20100;-60
2021/04/12 01:49:02;;;;;;;2.05;1.23;;;5.40;75.30;;;;;;5071539;28;20078;-60
2021/04/12 01:51:33;;;;;;;1.20;0.80;;;5.40;75.40;;;;;;5072252;28;20024;-60
2021/04/12 01:54:20;;;;;;;0.75;0.70;;;5.50;75.40;;;;;;5072099;28;20475;-60
2021/04/12 01:57:13;;;;;;;1.73;1.00;;;5.40;75.40;;;;;;5071419;28;20045;-60
2021/04/12 01:59:41;;;;;;;3.22;0.90;;;5.40;75.30;;;;;;5072295;28;20025;-60
2021/04/12 02:02:33;;;;;;;2.80;1.73;;;5.40;75.20;;;;;;5071796;28;20093;-60
2021/04/12 02:05:38;;;;;;;0.88;0.88;;;5.40;75.30;;;;;;5072310;28;20036;-60
2021/04/12 02:08:06;;;;;;;;;;;5.40;75.30;;;;;;5060949;28;20028;-60
2021/04/12 02:10:47;;;;;;;0.65;0.65;;;5.40;75.10;;;;;;5070727;28;19908;-60
2021/04/12 02:13:41;;;;;;;1.77;0.88;;;5.40;75.00;;;;;;5071954;28;20055;-60
2021/04/12 02:16:33;;;;;;;2.97;1.43;;;5.40;75.00;;;;;;5066462;28;20036;-60
2021/04/12 02:19:18;;;;;;;0.60;0.60;;;5.30;74.90;;;;;;5066339;28;20282;-60
2021/04/12 02:22:12;;;;;;;1.27;0.85;;;5.30;74.90;;;;;;5072164;28;20028;-60
2021/04/12 02:25:00;;;;;;;2.15;0.90;;;5.20;75.10;;;;;;5071100;28;20034;-60
2021/04/12 02:27:52;;;;;;;0.47;0.47;;;5.20;75.00;;;;;;5072209;28;20386;-60
2021/04/12 02:30:42;;;;;;;1.10;0.65;;;5.20;75.00;;;;;;5071187;28;20025;-60
2021/04/12 02:33:25;;;;;;;6.30;1.58;;;5.20;75.00;;;;;;5071663;28;20033;-60
2021/04/12 02:36:14;;;;;;;6.32;1.60;;;5.20;75.20;;;;;;5072072;28;20050;-60
2021/04/12 02:39:04;;;;;;;3.15;1.38;;;5.20;75.30;;;;;;5071156;28;20025;-60
2021/04/12 02:41:39;;;;;;;2.42;1.40;;;5.10;75.40;;;;;;5072510;28;20037;-60
2021/04/12 02:44:23;;;;;;;4.40;1.23;;;5.20;75.40;;;;;;5061797;28;20060;-60
2021/04/12 02:47:11;;;;;;;1.17;1.08;;;5.20;75.50;;;;;;5073598;28;20029;-60
2021/04/12 02:50:01;;;;;;;3.38;1.35;;;5.30;75.50;;;;;;5065744;28;20028;-60
2021/04/12 02:52:50;;;;;;;0.88;0.82;;;5.30;75.40;;;;;;5074597;28;20048;-60
2021/04/12 02:55:41;;;;;;;6.07;0.93;;;5.30;75.30;;;;;;5075006;28;20036;-60
2021/04/12 02:58:28;;;;;;;6.90;1.30;;;5.30;75.20;;;;;;5074442;28;20162;-60
2021/04/12 03:01:20;;;;;;;1.20;1.13;;;5.30;74.90;;;;;;5075023;28;20468;-60
2021/04/12 03:04:15;;;;;;;3.42;1.00;;;5.20;74.80;;;;;;5075001;28;20033;-60
2021/04/12 03:06:59;;;;;;;;;;;5.20;75.00;;;;;;5074965;28;20036;-60
2021/04/12 03:09:49;;;;;;;5.78;0.90;;;5.20;75.10;;;;;;5075038;28;19913;-60
2021/04/12 03:12:50;;;;;;;3.53;1.55;;;5.20;75.00;;;;;;5074144;28;20043;-60
2021/04/12 03:15:50;;;;;;;2.47;1.33;;;5.20;75.00;;;;;;5075002;28;20040;-60
2021/04/12 03:18:43;;;;;;;1.35;0.93;;;5.30;75.00;;;;;;5063297;28;20353;-60
2021/04/12 03:21:27;;;;;;;2.47;1.25;;;5.30;75.10;;;;;;5073922;28;20033;-60
2021/04/12 03:24:22;;;;;;;6.88;1.45;;;5.30;75.10;;;;;;5074676;28;20548;-60
2021/04/12 03:27:18;;;;;;;2.60;1.63;;;5.30;75.20;;;;;;5073877;28;20048;-60
2021/04/12 03:30:18;;;;;;;1.88;0.88;;;5.30;75.20;;;;;;5074756;28;20108;-60
2021/04/12 03:33:07;;;;;;;6.03;0.70;;;5.20;75.20;;;;;;5074582;28;20040;-61
2021/04/12 03:36:05;;;;;;;2.38;1.13;;;5.20;75.10;;;;;;5072818;28;20093;-60
2021/04/12 03:38:46;;;;;;;1.02;0.93;;;5.20;75.10;;;;;;5074443;28;20016;-60
2021/04/12 03:41:41;;;;;;;1.95;1.10;;;5.10;75.10;;;;;;5073795;28;20040;-60
2021/04/12 03:44:10;;;;;;;0.82;0.73;;;5.10;75.20;;;;;;5074560;28;20058;-60
2021/04/12 03:47:13;;;;;;;10.65;1.00;;;5.10;75.20;;;;;;5074340;28;20032;-60
2021/04/12 03:50:09;;;;;;;1.90;0.95;;;5.10;75.30;;;;;;5064245;28;20042;-60
2021/04/12 03:53:12;;;;;;;0.45;0.45;;;5.00;75.20;;;;;;5060831;28;20472;-60
2021/04/12 03:55:49;;;;;;;1.60;1.50;;;5.00;75.30;;;;;;5073253;28;20028;-60
2021/04/12 03:58:29;;;;;;;1.77;0.90;;;5.00;75.80;;;;;;5074000;28;20036;-60
2021/04/12 04:01:07;;;;;;;1.00;0.95;;;5.00;75.20;;;;;;5073449;28;20541;-60
2021/04/12 04:04:08;;;;;;;0.50;0.50;;;5.00;75.10;;;;;;5072324;28;20029;-60
2021/04/12 04:06:50;;;;;;;1.00;0.88;;;5.00;75.10;;;;;;5072412;28;20536;-60
2021/04/12 04:09:31;;;;;;;0.65;0.65;;;4.90;75.00;;;;;;5073099;28;20036;-60
2021/04/12 04:12:18;;;;;;;4.07;1.30;;;4.90;75.10;;;;;;5073765;28;20032;-60
2021/04/12 04:14:46;;;;;;;0.80;0.80;;;4.90;75.20;;;;;;5066907;28;20055;-60
2021/04/12 04:17:38;;;;;;;1.67;0.95;;;4.90;75.10;;;;;;5072723;28;20056;-60
2021/04/12 04:20:22;;;;;;;0.90;0.90;;;4.90;75.10;;;;;;5068281;28;20105;-60
2021/04/12 04:23:23;;;;;;;2.42;1.27;;;4.80;75.10;;;;;;5072788;28;20032;-60
2021/04/12 04:26:13;;;;;;;0.82;0.82;;;4.80;75.10;;;;;;5064038;28;20479;-60
2021/04/12 04:28:58;;;;;;;2.40;1.00;;;4.80;75.10;;;;;;5067362;28;20476;-60
2021/04/12 04:32:03;;;;;;;1.30;0.80;;;4.80;75.20;;;;;;5067329;28;20074;-60
2021/04/12 04:34:45;;;;;;;5.22;1.35;;;4.80;75.30;;;;;;5065593;28;20052;-60
2021/04/12 04:37:33;;;;;;;2.58;1.00;;;4.70;75.30;;;;;;5072622;28;20036;-60
2021/04/12 04:40:26;;;;;;;4.38;1.27;;;4.70;75.30;;;;;;5072174;28;20079;-60
2021/04/12 04:43:05;;;;;;;2.20;1.00;;;4.70;75.40;;;;;;5073198;28;20438;-60
2021/04/12 04:45:51;;;;;;;1.73;1.15;;;4.70;75.40;;;;;;5072275;28;20112;-60
2021/04/12 04:48:38;;;;;;;2.60;1.08;;;4.70;75.40;;;;;;5073587;28;20036;-60
2021/04/12 04:51:16;;;;;;;1.00;0.90;;;4.80;75.60;;;;;;5060809;28;20039;-60
2021/04/12 04:54:09;;;;;;;3.15;1.48;;;4.70;75.30;;;;;;5072585;28;20475;-60
2021/04/12 04:56:54;;;;;;;3.35;1.10;;;4.70;75.30;;;;;;5072809;28;20056;-59
2021/04/12 04:59:42;;;;;;;1.63;1.20;;;4.70;75.30;;;;;;5072449;28;20111;-60
2021/04/12 05:02:38;;;;;;;0.73;0.70;;;4.60;75.30;;;;;;5072592;28;20024;-60
2021/04/12 05:05:31;;;;;;;2.05;0.80;;;4.70;75.40;;;;;;5071822;28;20388;-60
2021/04/12 05:08:24;;;;;;;0.50;0.50;;;4.60;75.30;;;;;;5060307;28;20024;-60
2021/04/12 05:11:16;;;;;;;0.75;0.75;;;4.60;75.20;;;;;;5054680;28;20020;-60
2021/04/12 05:14:16;;;;;;;2.20;1.05;;;4.50;75.10;;;;;;5071561;28;20138;-60
2021/04/12 05:17:19;;;;;;;2.20;1.10;;;4.50;75.20;;;;;;5028029;28;20041;-59
2021/04/12 05:19:59;;;;;;;0.60;0.60;;;4.50;75.20;;;;;;5040155;28;20102;-60
2021/04/12 05:22:40;;;;;;;0.65;0.65;;;4.50;75.30;;;;;;5056738;28;20036;-60
2021/04/12 05:25:17;;;;;;;1.48;0.80;;;4.40;75.30;;;;;;5051841;28;20036;-61
2021/04/12 05:28:24;;;;;;;0.57;0.57;;;4.40;75.40;;;;;;5054424;28;20089;-59
2021/04/12 05:30:53;;;;;;;0.70;0.70;;;4.40;75.60;;;;;;5053177;28;20472;-60
2021/04/12 05:33:30;;;;;;;1.77;1.23;;;4.40;75.50;;;;;;5056607;28;20115;-61
2021/04/12 05:36:30;;;;;;;1.95;0.95;;;4.50;75.60;;;;;;5058545;28;20090;-60
2021/04/12 05:39:10;;;;;;;0.95;0.85;;;4.40;75.60;;;;;;5056076;28;20029;-61
2021/04/12 05:41:58;;;;;;;2.95;0.95;;;4.50;75.50;;;;;;5055260;28;20487;-61
2021/04/12 05:44:36;;;;;;;1.27;1.15;;;4.40;75.50;;;;;;5058032;28;20099;-61
2021/04/12 05:47:32;;;;;;;0.85;0.85;;;4.40;75.50;;;;;;5058746;28;20037;-61
2021/04/12 05:50:18;;;;;;;1.40;1.25;;;4.50;75.50;;;;;;5057945;28;20107;-61
2021/04/12 05:53:25;;;;;;;1.17;1.08;;;4.40;75.30;;;;;;5060293;28;20020;-61
2021/04/12 05:56:28;;;;;;;1.02;1.00;;;4.30;75.30;;;;;;5061967;28;20044;-61
2021/04/12 05:59:16;;;;;;;2.05;0.93;;;4.30;75.30;;;;;;5055749;28;20407;-61
2021/04/12 06:02:13;;;;;;;1.77;0.90;;;4.20;75.50;;;;;;5055039;28;20025;-63
2021/04/12 06:04:59;;;;;;;1.02;0.90;;;4.20;75.90;;;;;;5069434;28;20025;-62
2021/04/12 06:07:42;;;;;;;0.73;0.73;;;4.20;76.10;;;;;;5071552;28;20033;-61
2021/04/12 06:10:33;;;;;;;1.60;1.00;;;4.10;76.30;;;;;;5070384;28;20527;-61
2021/04/12 06:13:23;;;;;;;1.92;0.90;;;4.10;76.50;;;;;;5070395;28;20079;-62
2021/04/12 06:16:28;;;;;;;2.88;1.10;;;4.10;76.70;;;;;;5070207;28;20024;-61
2021/04/12 06:19:12;;;;;;;;;;;4.10;76.90;;;;;;5075449;28;20445;-62
2021/04/12 06:22:05;;;;;;;0.80;0.80;;;4.10;77.00;;;;;;5060596;28;20390;-62
2021/04/12 06:24:40;;;;;;;1.05;0.95;;;4.10;77.20;;;;;;5061444;28;20032;-60
2021/04/12 06:27:44;;;;;;;1.60;1.10;;;4.10;77.40;;;;;;5069072;28;20525;-61
2021/04/12 06:30:21;;;;;;;0.80;0.80;;;4.00;77.50;;;;;;5055157;28;20120;-61
2021/04/12 06:33:15;;;;;;;0.82;0.82;;;4.10;77.70;;;;;;5049543;28;20556;-61
2021/04/12 06:36:18;;;;;;;0.50;0.50;;;4.10;77.80;;;;;;5074129;28;20029;-61
2021/04/12 06:39:11;;;;;;;1.48;0.73;;;4.10;77.80;;;;;;5057049;28;20487;-60
2021/04/12 06:42:24;;;;;;;3.20;1.20;;;4.20;77.90;;;;;;5070032;28;20110;-61
2021/04/12 06:45:04;;;;;;;0.88;0.88;;;4.20;78.00;;;;;;5074551;28;20043;-60
2021/04/12 06:47:55;;;;;;;0.80;0.80;;;4.20;78.00;;;;;;5055093;28;20048;-61
2021/04/12 06:50:48;;;;;;;1.85;1.25;;;4.20;78.20;;;;;;5074436;28;20037;-60
2021/04/12 06:53:47;;;;;;;0.50;0.50;;;4.20;78.30;;;;;;5060570;28;20130;-60
2021/04/12 06:56:16;;;;;;;0.80;0.80;;;4.30;78.40;;;;;;5069887;28;20052;-60
2021/04/12 06:59:13;;;;;;;0.60;0.60;;;4.30;78.40;;;;;;5073585;28;20468;-61
2021/04/12 07:02:03;;;;;;;0.90;0.90;;;4.30;78.60;;;;;;5074782;28;20078;-60
2021/04/12 07:04:53;;;;;;;1.58;1.17;;;4.30;78.80;;;;;;5072189;28;20837;-65
2021/04/12 07:07:43;;;;;;;0.93;0.93;;;4.30;79.00;;;;;;5073760;28;20422;-59
2021/04/12 07:10:47;;;;;;;1.23;1.00;;;4.40;79.30;;;;;;5072742;28;20020;-59
2021/04/12 07:13:16;;;;;;;1.83;1.17;;;4.40;79.40;;;;;;5065660;28;20119;-59
2021/04/12 07:16:00;;;;;;;4.35;1.30;;;4.40;79.50;;;;;;5074028;28;20032;-59
2021/04/12 07:18:53;;;;;;;8.57;1.20;;;4.50;79.70;;;;;;5073851;28;20024;-64
2021/04/12 07:21:53;;;;;;;4.22;1.92;;;4.50;80.00;;;;;;5069273;28;20426;-58
2021/04/12 07:24:48;;;;;;;2.67;1.40;;;4.40;80.20;;;;;;5074618;28;20042;-60
2021/04/12 07:27:37;;;;;;;3.33;1.48;;;4.40;80.40;;;;;;5062108;28;20028;-60
2021/04/12 07:30:21;;;;;;;5.88;1.23;;;4.40;80.80;;;;;;5074019;28;20031;-60
2021/04/12 07:32:59;;;;;;;1.65;1.25;;;4.40;81.00;;;;;;5072821;28;20021;-60
2021/04/12 07:35:54;;;;;;;1.42;1.25;;;4.50;81.30;;;;;;5073572;28;20048;-60
2021/04/12 07:38:57;;;;;;;2.90;1.48;;;4.50;81.50;;;;;;5054325;28;20040;-60
2021/04/12 07:42:00;;;;;;;2.83;1.48;;;4.50;81.70;;;;;;5072109;28;20056;-60
2021/04/12 07:44:53;;;;;;;4.18;1.42;;;4.50;82.00;;;;;;5071583;28;20032;-60
2021/04/12 07:48:00;;;;;;;5.45;1.50;;;4.50;82.50;;;;;;5072015;28;20040;-60
2021/04/12 07:51:03;;;;;;;5.72;1.77;;;4.50;82.80;;;;;;5073533;28;20051;-60
2021/04/12 07:53:59;;;;;;;5.22;1.50;;;4.50;83.20;;;;;;5072199;28;20040;-60
2021/04/12 07:57:02;;;;;;;3.28;1.23;;;4.50;83.50;;;;;;5073172;28;20044;-60
2021/04/12 07:59:45;;;;;;;4.88;1.75;;;4.50;83.70;;;;;;5072402;28;20037;-60
2021/04/12 08:02:29;;;;;;;3.15;0.70;;;4.60;83.70;;;;;;5068206;28;20458;-60
2021/04/12 08:05:27;;;;;;;5.07;0.98;;;4.70;83.70;;;;;;5073327;28;20032;-61
2021/04/12 08:08:17;;;;;;;2.63;1.08;;;4.80;83.60;;;;;;5026583;28;20036;-59
2021/04/12 08:11:20;;;;;;;1.85;1.08;;;4.80;83.40;;;;;;5057178;28;20112;-60
2021/04/12 08:14:22;;;;;;;2.35;0.82;;;4.90;83.20;;;;;;5056977;28;20032;-60
2021/04/12 08:17:07;;;;;;;2.25;1.30;;;4.90;83.00;;;;;;5051471;28;20114;-60
2021/04/12 08:19:51;;;;;;;0.82;0.82;;;5.00;83.30;;;;;;5056046;28;20036;-60
2021/04/12 08:22:46;;;;;;;4.63;0.90;;;5.00;82.40;;;;;;5055576;28;20055;-60
2021/04/12 08:25:38;;;;;;;3.00;1.10;;;5.10;82.30;;;;;;5054284;28;20033;-60
2021/04/12 08:28:22;;;;;;;7.13;1.65;;;5.10;82.10;;;;;;5068347;28;20025;-60
2021/04/12 08:30:57;;;;;;;1.35;1.10;;;5.10;82.00;;;;;;5072436;28;20025;-60
2021/04/12 08:33:51;;;;;;;4.47;1.10;;;5.20;82.00;;;;;;5059448;28;20467;-60
2021/04/12 08:36:41;;;;;;;7.05;1.77;;;5.20;81.80;;;;;;5065229;28;20492;-60
2021/04/12 08:39:33;;;;;;;4.93;1.20;;;5.20;81.70;;;;;;5068505;28;20086;-60
2021/04/12 08:42:17;;;;;;;1.52;0.98;;;5.20;81.80;;;;;;5028673;28;20028;-60
2021/04/12 08:45:02;;;;;;;6.65;1.10;;;5.30;81.90;;;;;;5064662;28;20107;-60
2021/04/12 08:47:41;;;;;;;0.75;0.70;;;5.40;82.00;;;;;;5067247;28;20487;-60
2021/04/12 08:50:28;;;;;;;7.00;1.65;;;5.50;82.10;;;;;;5071867;28;20029;-60
2021/04/12 08:53:02;;;;;;;1.50;0.80;;;5.60;82.30;;;;;;5072875;28;20090;-60
2021/04/12 08:55:58;;;;;;;1.90;0.93;;;5.60;82.10;;;;;;5054690;28;20732;-60
2021/04/12 08:58:38;;;;;;;1.35;0.80;;;5.70;81.70;;;;;;5072280;28;20040;-60
2021/04/12 09:01:13;;;;;;;1.85;0.90;;;5.80;81.30;;;;;;5067544;28;20507;-60
2021/04/12 09:04:06;;;;;;;3.03;1.27;;;5.80;81.20;;;;;;5072716;28;20025;-60
2021/04/12 09:07:15;;;;;;;3.42;0.77;;;5.80;81.00;;;;;;5072717;28;20039;-60
2021/04/12 09:09:54;;;;;;;8.02;1.92;;;5.80;80.90;;;;;;5068630;28;20044;-60
2021/04/12 09:12:44;;;;;;;4.65;1.10;;;5.80;80.80;;;;;;5070919;28;20049;-60
2021/04/12 09:15:42;;;;;;;3.35;0.93;;;5.90;80.40;;;;;;5051701;28;20486;-60
2021/04/12 09:18:48;;;;;;;2.22;1.00;;;6.00;79.00;;;;;;5060167;28;20766;-60
2021/04/12 09:21:19;;;;;;;3.08;1.00;;;6.10;79.40;;;;;;5071830;28;20415;-60
2021/04/12 09:24:23;;;;;;;0.95;0.70;;;6.10;79.10;;;;;;5072611;28;20025;-60
2021/04/12 09:27:19;;;;;;;2.88;1.13;;;6.10;78.70;;;;;;5015569;28;20497;-60
2021/04/12 09:30:12;;;;;;;6.10;1.50;;;6.10;78.70;;;;;;5071928;28;20077;-60
2021/04/12 09:32:56;;;;;;;3.30;1.17;;;6.10;79.00;;;;;;5071271;28;20032;-60
2021/04/12 09:35:50;;;;;;;1.75;0.68;;;6.10;79.20;;;;;;5072149;28;20440;-60
2021/04/12 09:38:34;;;;;;;0.82;0.82;;;6.10;79.40;;;;;;5037995;28;20384;-60
2021/04/12 09:41:24;;;;;;;2.20;0.77;;;6.20;79.50;;;;;;5067147;28;20429;-60
2021/04/12 09:44:40;;;;;;;2.08;1.13;;;6.30;79.70;;;;;;5071798;28;20017;-61
2021/04/12 09:47:36;;;;;;;6.97;1.02;;;6.30;79.70;;;;;;5046811;28;20484;-61
2021/04/12 09:50:23;;;;;;;2.05;1.05;;;6.40;79.20;;;;;;5071528;28;20439;-61
2021/04/12 09:53:02;;;;;;;1.73;1.13;;;6.50;79.00;;;;;;5074614;28;20035;-60
2021/04/12 09:56:21;;;;;;;0.90;0.60;;;6.50;78.80;;;;;;5075487;28;20594;-60
2021/04/12 09:59:02;;;;;;;5.10;0.85;;;6.60;78.80;;;;;;5051629;28;20461;-61
2021/04/12 10:01:51;;;;;;;0.73;0.60;;;6.60;78.70;;;;;;5075364;28;20396;-60
2021/04/12 10:04:42;;;;;;;1.45;0.70;;;6.60;78.30;;;;;;5076138;28;20028;-61
2021/04/12 10:07:20;;;;;;;6.35;1.00;;;6.60;78.30;;;;;;5072537;28;20048;-60
2021/04/12 10:10:02;;;;;;;1.35;0.57;;;6.60;78.00;;;;;;5075783;28;20395;-60
2021/04/12 10:12:40;;;;;;;1.55;0.60;;;6.70;78.30;;;;;;5075876;28;20033;-59
2021/04/12 10:15:17;;;;;;;1.80;0.80;;;6.80;78.50;;;;;;5074914;28;20044;-60
2021/04/12 10:18:14;;;;;;;2.30;0.73;;;6.80;78.40;;;;;;5075559;28;20020;-60
2021/04/12 10:20:48;;;;;;;0.57;0.57;;;6.90;78.20;;;;;;5075289;28;20103;-60
2021/04/12 10:23:25;;;;;;;0.95;0.75;;;7.00;78.40;;;;;;5054592;28;20494;-60
2021/04/12 10:26:05;;;;;;;0.80;0.80;;;7.00;78.60;;;;;;5075086;28;20120;-60
2021/04/12 10:28:43;;;;;;;1.70;0.80;;;7.10;78.70;;;;;;5074685;28;20035;-60
2021/04/12 10:31:25;;;;;;;3.55;0.88;;;7.10;78.30;;;;;;5063892;28;20031;-60
2021/04/12 10:34:07;;;;;;;3.33;1.23;;;7.20;78.10;;;;;;5067345;28;20044;-60
2021/04/12 10:37:02;;;;;;;0.65;0.65;;;7.20;77.40;;;;;;5063308;28;20480;-60
2021/04/12 10:39:31;;;;;;;0.70;0.70;;;7.20;77.40;;;;;;5074904;28;20041;-60
2021/04/12 10:42:18;;;;;;;0.85;0.63;;;7.10;77.20;;;;;;5075413;28;20427;-60
2021/04/12 10:44:49;;;;;;;3.85;0.68;;;7.10;77.40;;;;;;5075210;28;20025;-60
2021/04/12 10:47:52;;;;;;;1.40;0.80;;;7.10;77.10;;;;;;5075115;28;20468;-60
2021/04/12 10:50:27;;;;;;;1.65;0.98;;;7.20;77.30;;;;;;5074430;28;20033;-60
2021/04/12 10:53:05;;;;;;;0.82;0.73;;;7.20;78.00;;;;;;5070753;28;20037;-60
2021/04/12 10:56:15;;;;;;;0.63;0.63;;;7.20;77.50;;;;;;5061099;28;20043;-60
2021/04/12 10:58:53;;;;;;;2.55;0.70;;;7.20;77.70;;;;;;5007966;28;20524;-60
2021/04/12 11:01:37;;;;;;;0.40;0.40;;;7.30;78.00;;;;;;5061698;28;20067;-60
2021/04/12 11:04:15;;;;;;;2.38;0.70;;;7.30;77.90;;;;;;5072016;28;20357;-60
2021/04/12 11:07:01;;;;;;;0.50;0.50;;;7.30;78.10;;;;;;5054370;28;20105;-60
2021/04/12 11:09:45;;;;;;;2.72;0.73;;;7.40;78.20;;;;;;5072711;28;20035;-61
2021/04/12 11:12:29;;;;;;;0.40;0.40;;;7.40;78.20;;;;;;5068688;28;20059;-60
2021/04/12 11:15:14;;;;;;;0.80;0.68;;;7.50;78.40;;;;;;5070815;28;20052;-60
2021/04/12 11:17:49;;;;;;;3.85;0.73;;;7.50;78.30;;;;;;5066988;28;20020;-60
2021/04/12 11:20:31;;;;;;;4.18;1.20;;;7.60;78.50;;;;;;5067258;28;20032;-60
2021/04/12 11:23:20;;;;;;;1.48;0.88;;;7.60;77.50;;;;;;5060990;28;20093;-60
2021/04/12 11:26:22;;;;;;;0.75;0.75;;;7.60;78.30;;;;;;5069866;28;20543;-60
2021/04/12 11:28:53;;;;;;;0.70;0.70;;;7.70;78.50;;;;;;5059913;28;20040;-60
2021/04/12 11:31:43;;;;;;;1.27;0.73;;;7.80;78.40;;;;;;5072956;28;20036;-60
2021/04/12 11:34:09;;;;;;;0.90;0.82;;;7.80;78.30;;;;;;5069869;28;20028;-61
2021/04/12 11:37:12;;;;;;;4.15;0.90;;;7.90;78.50;;;;;;5071813;28;20044;-61
2021/04/12 11:39:42;;;;;;;1.50;0.80;;;7.90;78.40;;;;;;5071167;28;20028;-61
2021/04/12 11:42:19;;;;;;;0.70;0.57;;;7.90;78.20;;;;;;5072216;28;20471;-60
2021/04/12 11:44:49;;;;;;;0.80;0.80;;;8.00;78.00;;;;;;5072226;28;20476;-63
2021/04/12 11:47:18;;;;;;;1.27;0.70;;;8.00;77.80;;;;;;5071152;28;20020;-63
2021/04/12 11:50:02;;;;;;;0.70;0.60;;;8.00;77.60;;;;;;5072124;28;20923;-63
2021/04/12 11:52:38;;;;;;;0.30;0.30;;;8.00;77.70;;;;;;5069536;28;20542;-60
2021/04/12 11:55:22;;;;;;;0.55;0.55;;;8.00;77.20;;;;;;5072063;28;20032;-60
2021/04/12 11:57:54;;;;;;;2.05;0.90;;;8.00;77.10;;;;;;5050948;28;578241;-60
2021/04/12 12:01:04;;;;;;;0.77;0.77;;;8.10;76.80;;;;;;5058467;28;20033;-60
2021/04/12 12:03:40;;;;;;;0.70;0.70;;;8.00;76.20;;;;;;4991105;28;20390;-60
2021/04/12 12:06:11;;;;;;;0.40;0.40;;;7.90;76.50;;;;;;4989375;28;20042;-60
2021/04/12 12:08:49;;;;;;;1.08;0.70;;;8.00;76.90;;;;;;5035962;28;20706;-60
2021/04/12 12:11:31;;;;;;;3.47;0.93;;;8.10;77.40;;;;;;5072408;28;20025;-60
2021/04/12 12:14:04;;;;;;;1.35;0.55;;;8.10;76.90;;;;;;5071236;28;20384;-60
2021/04/12 12:16:36;;;;;;;3.42;0.70;;;8.10;77.30;;;;;;5065790;28;20033;-60
2021/04/12 12:19:27;;;;;;;0.50;0.50;;;8.20;77.40;;;;;;5067418;28;20479;-60
2021/04/12 12:22:13;;;;;;;0.40;0.40;;;8.30;77.30;;;;;;5061208;28;20383;-60
2021/04/12 12:24:48;;;;;;;1.85;0.45;;;8.40;77.80;;;;;;5067137;28;20036;-60
2021/04/12 12:27:36;;;;;;;0.88;0.60;;;8.40;77.50;;;;;;5072925;28;20028;-60
2021/04/12 12:30:20;;;;;;;6.50;0.95;;;8.50;77.80;;;;;;5070368;28;20043;-59
2021/04/12 12:33:07;;;;;;;5.05;1.50;;;8.60;76.70;;;;;;5064282;28;20056;-59
2021/04/12 12:35:55;;;;;;;1.45;0.98;;;8.60;74.60;;;;;;5068794;28;20063;-60
2021/04/12 12:38:48;;;;;;;2.25;0.80;;;8.70;76.50;;;;;;5062389;28;20021;-60
2021/04/12 12:41:21;;;;;;;5.32;0.70;;;8.80;77.30;;;;;;5053046;28;20534;-59
2021/04/12 12:43:51;;;;;;;0.52;0.52;;;8.80;76.90;;;;;;5056299;28;20435;-60
2021/04/12 12:46:29;;;;;;;5.15;0.98;;;8.90;76.90;;;;;;5058198;28;20028;-60
2021/04/12 12:49:01;;;;;;;2.22;0.82;;;8.90;77.40;;;;;;5061476;28;20090;-60
2021/04/12 12:51:36;;;;;;;0.60;0.57;;;8.90;77.00;;;;;;5064686;28;20086;-59
2021/04/12 12:54:15;;;;;;;1.50;0.50;;;9.00;76.60;;;;;;5053895;28;20130;-60
2021/04/12 12:56:44;;;;;;;1.45;0.70;;;9.00;77.00;;;;;;5051153;28;20127;-60
2021/04/12 12:59:27;;;;;;;2.05;0.70;;;9.00;76.80;;;;;;5053058;28;20027;-60
2021/04/12 13:01:55;;;;;;;0.93;0.77;;;9.10;76.50;;;;;;5051308;28;20029;-59
2021/04/12 13:04:29;;;;;;;1.92;0.50;;;9.10;76.60;;;;;;5058180;28;20302;-59
2021/04/12 13:07:08;;;;;;;1.52;0.60;;;9.10;76.40;;;;;;5053394;28;20025;-60
2021/04/12 13:09:37;;;;;;;1.17;0.50;;;9.10;76.20;;;;;;5052473;28;20158;-60
2021/04/12 13:12:13;;;;;;;0.40;0.40;;;9.10;75.90;;;;;;5060217;28;20097;-60
2021/04/12 13:14:40;;;;;;;1.45;0.45;;;9.10;75.90;;;;;;5062651;28;20048;-60
2021/04/12 13:17:27;;;;;;;1.13;0.57;;;9.20;76.20;;;;;;5063531;28;20141;-60
2021/04/12 13:20:00;;;;;;;0.52;0.50;;;9.20;75.70;;;;;;5060553;28;20029;-60
2021/04/12 13:22:33;;;;;;;4.35;0.80;;;9.30;75.70;;;;;;5064257;28;20492;-59
2021/04/12 13:25:11;;;;;;;0.55;0.22;;;9.30;74.40;;;;;;5054014;28;20071;-60
2021/04/12 13:27:38;;;;;;;1.30;0.70;;;9.40;73.60;;;;;;5056584;28;20035;-60
2021/04/12 13:30:08;;;;;;;1.58;0.47;;;9.40;75.50;;;;;;5060365;28;20029;-60
2021/04/12 13:32:38;;;;;;;7.20;0.82;;;9.50;74.10;;;;;;5059078;28;20460;-60
2021/04/12 13:35:11;;;;;;;0.40;0.40;;;9.50;73.70;;;;;;5060760;28;20047;-60
2021/04/12 13:37:48;;;;;;;2.17;0.65;;;9.60;74.50;;;;;;5056911;28;20036;-60
2021/04/12 13:40:31;;;;;;;1.77;0.50;;;9.60;74.90;;;;;;5058767;28;20422;-59
2021/04/12 13:43:06;;;;;;;3.63;0.73;;;9.70;75.60;;;;;;5057464;28;20032;-60
2021/04/12 13:45:37;;;;;;;2.35;0.68;;;9.70;73.40;;;;;;5057965;28;20552;-60
2021/04/12 13:48:24;;;;;;;0.50;0.50;;;9.70;74.80;;;;;;5056559;28;20029;-60
2021/04/12 13:51:04;;;;;;;3.83;0.50;;;9.80;75.50;;;;;;5058255;28;20031;-60
2021/04/12 13:53:44;;;;;;;1.77;0.73;;;9.80;74.70;;;;;;5058475;28;20044;-61
2021/04/12 13:56:27;;;;;;;2.28;0.70;;;9.90;74.30;;;;;;5066940;28;20130;-61
2021/04/12 13:58:58;;;;;;;1.33;0.75;;;10.00;73.10;;;;;;5067296;28;20111;-61
2021/04/12 14:01:42;;;;;;;1.65;0.80;;;9.90;74.00;;;;;;5066121;28;20039;-61
2021/04/12 14:04:14;;;;;;;2.30;0.52;;;10.00;73.50;;;;;;5067056;28;20047;-61
2021/04/12 14:07:02;;;;;;;0.37;0.37;;;10.00;72.20;;;;;;5063847;28;20025;-61
2021/04/12 14:10:00;;;;;;;2.40;0.35;;;10.10;73.70;;;;;;5058004;28;20028;-61
2021/04/12 14:12:30;;;;;;;2.83;0.75;;;10.20;73.50;;;;;;5059096;28;20039;-61
2021/04/12 14:15:09;;;;;;;1.17;0.50;;;10.20;72.80;;;;;;5063724;28;20422;-61
2021/04/12 14:17:42;;;;;;;3.83;0.55;;;10.30;73.40;;;;;;5067972;28;20032;-61
2021/04/12 14:20:44;;;;;;;1.20;0.57;;;10.30;69.50;;;;;;5065745;28;20096;-61
2021/04/12 14:23:22;;;;;;;3.38;0.63;;;10.40;71.10;;;;;;5051565;28;20040;-61
2021/04/12 14:26:08;;;;;;;1.00;0.55;;;10.40;71.60;;;;;;5065014;28;20028;-61
2021/04/12 14:28:42;;;;;;;0.82;0.50;;;10.40;71.30;;;;;;5064969;28;20460;-61
2021/04/12 14:31:27;;;;;;;0.90;0.45;;;10.40;70.60;;;;;;5063485;28;20029;-60
2021/04/12 14:34:01;;;;;;;5.97;0.52;;;10.40;70.60;;;;;;5062904;28;20121;-62
2021/04/12 14:36:29;;;;;;;2.33;0.73;;;10.50;71.20;;;;;;5064600;28;20506;-62